Time;durP1;ratioP1;P1;durP2;ratioP2;P2;SDS_P1;SDS_P2;PMS_P1;PMS_P2;Temp;Humidity;BMP_temperature;BMP_pressure;BME280_temperature;BME280_humidity;BME280_pressure;Samples;Min_cycle;Max_cycle;Signal;HPM_P1;HPM_P2
2024/02/14 00:02:25;;;;;;;0.90;0.50;;;5.80;1.00;;;;;;5136919;27;20419;-58
2024/02/14 00:04:53;;;;;;;1.17;0.60;;;5.80;1.00;;;;;;5134841;27;20426;-58
2024/02/14 00:07:20;;;;;;;1.80;0.60;;;5.80;1.00;;;;;;5117877;27;20449;-57
2024/02/14 00:09:47;;;;;;;1.73;0.60;;;5.80;1.00;;;;;;5135717;27;20453;-58
2024/02/14 00:12:14;;;;;;;2.10;0.50;;;5.80;1.00;;;;;;5136825;27;20426;-58
2024/02/14 00:14:42;;;;;;;1.10;0.60;;;5.80;1.00;;;;;;5136565;27;20426;-58
2024/02/14 00:17:10;;;;;;;1.13;0.60;;;5.90;1.00;;;;;;5135724;27;20910;-58
2024/02/14 00:19:37;;;;;;;1.20;0.60;;;5.90;99.90;;;;;;5135157;27;20418;-58
2024/02/14 00:22:06;;;;;;;1.30;0.60;;;5.90;1.00;;;;;;5135928;27;20426;-58
2024/02/14 00:24:35;;;;;;;1.92;0.50;;;5.90;1.00;;;;;;5135633;27;20888;-58
2024/02/14 00:27:03;;;;;;;1.20;0.60;;;5.90;1.00;;;;;;5135923;27;20430;-58
2024/02/14 00:29:30;;;;;;;1.30;0.60;;;5.90;1.00;;;;;;5136025;28;20422;-58
2024/02/14 00:31:58;;;;;;;2.00;0.60;;;5.90;1.00;;;;;;5136150;28;20419;-58
2024/02/14 00:34:25;;;;;;;1.10;0.60;;;5.90;1.00;;;;;;5136773;28;20418;-58
2024/02/14 00:36:52;;;;;;;1.20;0.50;;;5.90;99.90;;;;;;5132907;28;20751;-58
2024/02/14 00:39:19;;;;;;;1.00;0.60;;;5.90;1.00;;;;;;5120950;28;20476;-58
2024/02/14 00:41:47;;;;;;;1.05;0.60;;;5.90;1.00;;;;;;5137336;28;20426;-58
2024/02/14 00:44:16;;;;;;;1.70;0.70;;;5.80;1.00;;;;;;5135129;28;20438;-58
2024/02/14 00:46:43;;;;;;;2.40;0.50;;;5.80;61.70;;;;;;5136283;28;20464;-58
2024/02/14 00:49:13;;;;;;;1.50;0.60;;;5.90;99.90;;;;;;5136076;28;20441;-58
2024/02/14 00:51:40;;;;;;;0.80;0.55;;;6.00;1.00;;;;;;5134999;28;20479;-58
2024/02/14 00:54:07;;;;;;;1.50;0.60;;;6.10;1.00;;;;;;5136009;28;20854;-58
2024/02/14 00:56:34;;;;;;;1.40;0.68;;;6.10;1.00;;;;;;5135893;28;20505;-58
2024/02/14 00:59:02;;;;;;;1.90;0.68;;;6.10;1.00;;;;;;5136040;28;20430;-58
2024/02/14 01:01:28;;;;;;;1.20;0.60;;;6.10;1.00;;;;;;5135239;28;20431;-58
2024/02/14 01:03:55;;;;;;;1.00;0.60;;;6.20;1.00;;;;;;5135934;28;20460;-58
2024/02/14 01:06:24;;;;;;;3.10;0.70;;;6.20;99.90;;;;;;5136994;28;20422;-58
2024/02/14 01:08:51;;;;;;;1.00;0.60;;;6.20;99.90;;;;;;5136203;28;20483;-58
2024/02/14 01:11:18;;;;;;;1.10;0.63;;;6.20;1.00;;;;;;5135949;28;20426;-58
2024/02/14 01:13:45;;;;;;;1.00;0.60;;;6.20;99.90;;;;;;5135716;28;20441;-58
2024/02/14 01:16:14;;;;;;;2.10;0.60;;;6.30;99.90;;;;;;5135364;28;20418;-58
2024/02/14 01:18:41;;;;;;;0.90;0.50;;;6.20;1.00;;;;;;5136567;28;20430;-58
2024/02/14 01:21:08;;;;;;;0.90;0.60;;;6.20;99.90;;;;;;5128762;28;20792;-58
2024/02/14 01:23:36;;;;;;;1.10;0.60;;;6.20;1.00;;;;;;5137010;28;20490;-58
2024/02/14 01:26:03;;;;;;;1.40;0.60;;;6.20;1.00;;;;;;5131383;28;20454;-58
2024/02/14 01:28:30;;;;;;;1.35;0.60;;;6.20;1.00;;;;;;5132890;28;20819;-58
2024/02/14 01:30:57;;;;;;;1.45;0.50;;;6.30;1.00;;;;;;5135987;28;20418;-59
2024/02/14 01:33:24;;;;;;;1.02;0.50;;;6.20;1.00;;;;;;5136197;28;20505;-58
2024/02/14 01:35:51;;;;;;;1.50;0.60;;;6.20;1.00;;;;;;5137971;27;20537;-58
2024/02/14 01:38:18;;;;;;;1.50;0.50;;;6.20;1.00;;;;;;5140082;27;20436;-58
2024/02/14 01:40:48;;;;;;;0.87;0.60;;;6.20;1.00;;;;;;5139367;27;20422;-58
2024/02/14 01:43:15;;;;;;;0.90;0.55;;;6.30;1.00;;;;;;5140256;27;20418;-58
2024/02/14 01:45:42;;;;;;;1.20;0.60;;;6.30;1.00;;;;;;5140204;27;20446;-58
2024/02/14 01:48:10;;;;;;;0.90;0.50;;;6.30;1.00;;;;;;5140095;27;20524;-58
2024/02/14 01:50:38;;;;;;;2.40;0.57;;;6.30;1.00;;;;;;5140112;27;20520;-58
2024/02/14 01:53:06;;;;;;;1.63;0.60;;;6.30;1.00;;;;;;5139498;27;20422;-58
2024/02/14 01:55:34;;;;;;;1.42;0.50;;;6.30;1.00;;;;;;5138722;27;20795;-58
2024/02/14 01:58:04;;;;;;;0.75;0.40;;;6.30;1.00;;;;;;5135631;27;20430;-58
2024/02/14 02:00:32;;;;;;;2.55;0.60;;;6.40;99.90;;;;;;5139302;27;20512;-58
2024/02/14 02:02:59;;;;;;;1.30;0.50;;;6.50;99.90;;;;;;5139031;27;20437;-58
2024/02/14 02:05:26;;;;;;;1.00;0.50;;;6.50;99.90;;;;;;5113887;27;20459;-58
2024/02/14 02:07:54;;;;;;;0.85;0.50;;;6.60;99.90;;;;;;5138642;27;20773;-58
2024/02/14 02:10:22;;;;;;;2.53;0.50;;;6.70;99.90;;;;;;5139268;27;20917;-59
2024/02/14 02:12:50;;;;;;;2.00;0.57;;;6.70;99.90;;;;;;5138509;27;20430;-58
2024/02/14 02:15:19;;;;;;;1.42;0.60;;;6.70;99.90;;;;;;5137785;27;20439;-58
2024/02/14 02:17:52;;;;;;;1.30;0.50;;;6.60;99.90;;;;;;5142229;27;20464;-58
2024/02/14 02:20:19;;;;;;;1.77;0.60;;;6.70;99.90;;;;;;5138610;27;20438;-58
2024/02/14 02:22:49;;;;;;;1.90;0.60;;;6.70;99.90;;;;;;5139183;27;20487;-58
2024/02/14 02:25:16;;;;;;;1.50;0.60;;;6.70;99.90;;;;;;5138805;27;20445;-58
2024/02/14 02:27:43;;;;;;;1.00;0.60;;;6.70;99.90;;;;;;5138090;27;20462;-58
2024/02/14 02:30:10;;;;;;;0.90;0.50;;;6.70;99.90;;;;;;5138158;27;20483;-58
2024/02/14 02:32:38;;;;;;;0.70;0.40;;;6.80;99.90;;;;;;5131303;27;22339;-58
2024/02/14 02:35:05;;;;;;;1.17;0.60;;;6.90;99.90;;;;;;5132749;27;20520;-58
2024/02/14 02:37:32;;;;;;;1.00;0.60;;;7.10;99.90;;;;;;5135854;27;20445;-58
2024/02/14 02:40:01;;;;;;;1.20;0.50;;;7.00;99.90;;;;;;5138041;27;20766;-58
2024/02/14 02:42:29;;;;;;;1.80;0.50;;;7.00;99.90;;;;;;5138849;27;20481;-58
2024/02/14 02:44:55;;;;;;;2.00;0.60;;;7.00;99.90;;;;;;5138761;27;20441;-58
2024/02/14 02:47:22;;;;;;;0.90;0.50;;;6.90;99.90;;;;;;5137306;27;20514;-58
2024/02/14 02:49:49;;;;;;;1.73;0.60;;;6.90;99.90;;;;;;5138413;27;20426;-58
2024/02/14 02:52:16;;;;;;;1.90;0.70;;;6.80;99.90;;;;;;5139168;27;20418;-58
2024/02/14 02:54:43;;;;;;;1.60;0.60;;;6.80;99.90;;;;;;5137631;27;20453;-58
2024/02/14 02:57:12;;;;;;;1.10;0.60;;;6.80;99.90;;;;;;5138592;27;20517;-58
2024/02/14 02:59:42;;;;;;;2.17;0.70;;;6.80;99.90;;;;;;5137286;27;20432;-58
2024/02/14 03:02:11;;;;;;;1.00;0.50;;;6.70;99.90;;;;;;5137255;27;20430;-58
2024/02/14 03:04:38;;;;;;;2.05;0.50;;;6.80;99.90;;;;;;5135676;27;20711;-58
2024/02/14 03:07:07;;;;;;;0.80;0.50;;;6.70;99.90;;;;;;5136185;27;20418;-58
2024/02/14 03:09:34;;;;;;;1.80;0.60;;;6.70;99.90;;;;;;5137010;27;20434;-57
2024/02/14 03:12:02;;;;;;;1.30;0.60;;;6.70;99.90;;;;;;5135541;27;20787;-57
2024/02/14 03:14:32;;;;;;;2.65;0.57;;;6.70;99.90;;;;;;5131369;27;20458;-58
2024/02/14 03:17:01;;;;;;;0.70;0.55;;;6.70;99.90;;;;;;5135753;27;20612;-58
2024/02/14 03:19:28;;;;;;;1.50;0.52;;;6.70;99.90;;;;;;5136064;27;20992;-58
2024/02/14 03:21:55;;;;;;;1.60;0.50;;;6.80;99.90;;;;;;5137016;27;20450;-58
2024/02/14 03:24:22;;;;;;;0.80;0.50;;;6.70;99.90;;;;;;5136358;27;20458;-57
2024/02/14 03:26:51;;;;;;;0.95;0.60;;;6.70;99.90;;;;;;5137159;27;20450;-57
2024/02/14 03:29:18;;;;;;;1.50;0.60;;;6.70;99.90;;;;;;5138085;27;20450;-57
2024/02/14 03:31:47;;;;;;;0.90;0.50;;;6.80;99.90;;;;;;5137783;27;20426;-58
2024/02/14 03:34:14;;;;;;;1.52;0.50;;;6.80;99.90;;;;;;5138195;27;20426;-57
2024/02/14 03:36:42;;;;;;;1.90;0.60;;;6.70;99.90;;;;;;5137803;27;20472;-58
2024/02/14 03:39:10;;;;;;;1.60;0.60;;;6.70;99.90;;;;;;5138011;27;20422;-58
2024/02/14 03:41:38;;;;;;;1.50;0.60;;;6.70;99.90;;;;;;5137860;27;20450;-58
2024/02/14 03:44:06;;;;;;;1.30;0.50;;;6.70;99.90;;;;;;5136793;27;20428;-56
2024/02/14 03:46:36;;;;;;;1.30;0.50;;;6.70;99.90;;;;;;5130283;27;20443;-57
2024/02/14 03:49:04;;;;;;;2.70;0.60;;;6.70;99.90;;;;;;5137953;27;20421;-58
2024/02/14 03:51:31;;;;;;;0.90;0.50;;;6.70;99.90;;;;;;5137791;27;20472;-58
2024/02/14 03:53:58;;;;;;;1.92;0.50;;;6.60;99.90;;;;;;5118470;27;20436;-58
2024/02/14 03:56:26;;;;;;;1.30;0.60;;;6.60;99.90;;;;;;5121529;27;20433;-58
2024/02/14 03:58:53;;;;;;;1.88;0.60;;;6.60;99.90;;;;;;5136440;27;20430;-58
2024/02/14 04:01:20;;;;;;;1.10;0.50;;;6.60;99.90;;;;;;5129242;27;20446;-58
2024/02/14 04:03:48;;;;;;;1.40;0.70;;;6.60;99.90;;;;;;5137556;27;20414;-58
2024/02/14 04:06:17;;;;;;;1.40;0.60;;;6.60;99.90;;;;;;5137973;27;20422;-58
2024/02/14 04:08:44;;;;;;;1.40;0.70;;;6.60;99.90;;;;;;5137768;27;20807;-58
2024/02/14 04:11:13;;;;;;;1.30;0.50;;;6.60;99.90;;;;;;5137806;27;20422;-58
2024/02/14 04:13:40;;;;;;;0.80;0.50;;;6.70;99.90;;;;;;5137157;27;20577;-58
2024/02/14 04:16:07;;;;;;;0.90;0.60;;;6.70;99.90;;;;;;5137372;27;20407;-58
2024/02/14 04:18:34;;;;;;;1.70;0.50;;;6.70;99.90;;;;;;5129225;27;20689;-57
2024/02/14 04:21:01;;;;;;;0.80;0.50;;;6.70;99.90;;;;;;5137728;27;20760;-57
2024/02/14 04:23:29;;;;;;;0.90;0.50;;;6.70;99.90;;;;;;5128666;27;20455;-58
2024/02/14 04:25:57;;;;;;;0.77;0.40;;;6.70;99.90;;;;;;5136950;27;20434;-58
2024/02/14 04:28:24;;;;;;;0.70;0.40;;;6.70;99.90;;;;;;5137168;27;20453;-57
2024/02/14 04:30:53;;;;;;;0.95;0.50;;;6.70;99.90;;;;;;5136899;28;20446;-59
2024/02/14 04:33:21;;;;;;;1.27;0.40;;;6.80;99.90;;;;;;5137300;28;20452;-57
2024/02/14 04:35:50;;;;;;;0.80;0.50;;;6.80;99.90;;;;;;5136996;28;20434;-57
2024/02/14 04:38:18;;;;;;;2.10;0.50;;;6.80;99.90;;;;;;5137970;28;20494;-57
2024/02/14 04:40:46;;;;;;;0.88;0.40;;;6.80;99.90;;;;;;5136888;28;20426;-58
2024/02/14 04:43:13;;;;;;;0.70;0.40;;;7.00;99.90;;;;;;5137268;28;20449;-57
2024/02/14 04:45:40;;;;;;;1.05;0.50;;;7.00;99.90;;;;;;5137314;28;20512;-58
2024/02/14 04:48:08;;;;;;;1.10;0.50;;;7.00;99.90;;;;;;5135772;28;20430;-57
2024/02/14 04:50:35;;;;;;;0.83;0.50;;;7.10;99.90;;;;;;5137317;28;20418;-57
2024/02/14 04:53:02;;;;;;;1.50;0.50;;;7.20;99.90;;;;;;5135021;28;20503;-58
2024/02/14 04:55:29;;;;;;;0.95;0.40;;;7.10;99.90;;;;;;5136063;28;20449;-59
2024/02/14 04:57:58;;;;;;;2.55;0.50;;;7.00;99.90;;;;;;5136874;28;20410;-58
2024/02/14 05:00:25;;;;;;;2.85;0.40;;;6.90;99.90;;;;;;5136775;28;21047;-58
2024/02/14 05:02:51;;;;;;;0.70;0.40;;;6.90;99.90;;;;;;5136763;28;20507;-58
2024/02/14 05:05:20;;;;;;;1.73;0.50;;;6.90;99.90;;;;;;5137567;28;20430;-58
2024/02/14 05:07:47;;;;;;;0.90;0.50;;;6.90;99.90;;;;;;5136798;28;20525;-58
2024/02/14 05:10:14;;;;;;;0.63;0.40;;;6.90;99.90;;;;;;5138727;27;20541;-58
2024/02/14 05:12:41;;;;;;;0.98;0.50;;;7.10;99.90;;;;;;5139662;27;20855;-58
2024/02/14 05:15:12;;;;;;;0.90;0.43;;;7.00;99.90;;;;;;5120874;27;20431;-58
2024/02/14 05:17:39;;;;;;;0.90;0.50;;;7.00;99.90;;;;;;5136665;27;20701;-58
2024/02/14 05:20:08;;;;;;;1.98;0.50;;;7.00;99.90;;;;;;5139892;27;20454;-58
2024/02/14 05:22:36;;;;;;;0.93;0.40;;;7.00;99.90;;;;;;5139619;27;20822;-58
2024/02/14 05:25:04;;;;;;;0.90;0.50;;;7.00;99.90;;;;;;5139397;27;20430;-58
2024/02/14 05:27:31;;;;;;;0.70;0.40;;;7.00;99.90;;;;;;5139327;27;20491;-58
2024/02/14 05:29:58;;;;;;;0.70;0.40;;;7.00;99.90;;;;;;5140147;27;20458;-58
2024/02/14 05:32:26;;;;;;;1.60;0.50;;;7.00;99.90;;;;;;5130571;27;20519;-58
2024/02/14 05:34:54;;;;;;;1.00;0.50;;;7.00;99.90;;;;;;5138757;27;20723;-58
2024/02/14 05:37:21;;;;;;;1.67;0.50;;;7.00;99.90;;;;;;5138810;27;20519;-58
2024/02/14 05:39:48;;;;;;;1.88;0.40;;;7.00;99.90;;;;;;5139778;27;20426;-59
2024/02/14 05:42:15;;;;;;;0.70;0.40;;;7.00;99.90;;;;;;5138853;27;20449;-59
2024/02/14 05:44:42;;;;;;;0.80;0.50;;;7.00;99.90;;;;;;5137988;27;20881;-58
2024/02/14 05:47:11;;;;;;;1.98;0.40;;;6.90;99.90;;;;;;5138347;27;20474;-59
2024/02/14 05:49:39;;;;;;;1.45;0.50;;;7.00;99.90;;;;;;5138502;27;20423;-58
2024/02/14 05:52:07;;;;;;;0.75;0.40;;;7.00;99.90;;;;;;5138481;27;20458;-58
2024/02/14 05:54:34;;;;;;;0.60;0.40;;;7.00;99.90;;;;;;5140029;27;20493;-59
2024/02/14 05:57:02;;;;;;;2.05;0.47;;;7.00;99.90;;;;;;5139079;27;20510;-59
2024/02/14 05:59:29;;;;;;;0.70;0.40;;;7.00;99.90;;;;;;5139320;27;20462;-57
2024/02/14 06:01:56;;;;;;;0.80;0.50;;;7.20;99.90;;;;;;5138945;27;20418;-59
2024/02/14 06:04:23;;;;;;;2.40;0.50;;;7.10;99.90;;;;;;5139598;27;20406;-59
2024/02/14 06:06:51;;;;;;;0.70;0.40;;;7.10;99.90;;;;;;5137641;27;20949;-59
2024/02/14 06:09:19;;;;;;;1.20;0.40;;;7.10;99.90;;;;;;5139888;27;20748;-58
2024/02/14 06:11:46;;;;;;;1.77;0.40;;;7.10;99.90;;;;;;5130590;27;20466;-59
2024/02/14 06:14:13;;;;;;;0.90;0.40;;;7.00;99.90;;;;;;5138849;27;20469;-59
2024/02/14 06:16:40;;;;;;;0.85;0.40;;;7.00;99.90;;;;;;5139237;27;20425;-59
2024/02/14 06:19:07;;;;;;;1.15;0.40;;;7.00;99.90;;;;;;5138129;27;20457;-59
2024/02/14 06:21:34;;;;;;;1.10;0.40;;;7.00;99.90;;;;;;5139242;27;20429;-58
2024/02/14 06:24:03;;;;;;;1.92;0.40;;;6.90;99.90;;;;;;5139751;27;20475;-59
2024/02/14 06:26:31;;;;;;;0.68;0.40;;;6.90;99.90;;;;;;5138708;27;20436;-58
2024/02/14 06:28:58;;;;;;;1.80;0.50;;;6.90;99.90;;;;;;5138783;27;20454;-58
2024/02/14 06:31:25;;;;;;;0.65;0.40;;;6.90;99.90;;;;;;5137938;27;20418;-58
2024/02/14 06:33:52;;;;;;;1.38;0.40;;;7.00;99.90;;;;;;5138720;27;20900;-58
2024/02/14 06:36:19;;;;;;;1.38;0.40;;;7.00;99.90;;;;;;5138292;27;20422;-58
2024/02/14 06:38:46;;;;;;;0.70;0.40;;;7.30;99.90;;;;;;5134951;27;20530;-58
2024/02/14 06:41:14;;;;;;;1.00;0.40;;;7.30;99.90;;;;;;5136731;27;20442;-58
2024/02/14 06:43:41;;;;;;;0.80;0.40;;;7.30;99.90;;;;;;5136404;27;20446;-58
2024/02/14 06:46:08;;;;;;;2.08;0.40;;;7.30;99.90;;;;;;5141276;27;20468;-58
2024/02/14 06:48:35;;;;;;;0.75;0.40;;;7.20;99.90;;;;;;5132570;27;20522;-58
2024/02/14 06:51:02;;;;;;;1.00;0.40;;;7.20;99.90;;;;;;5137192;27;20430;-58
2024/02/14 06:53:30;;;;;;;0.63;0.40;;;7.10;99.90;;;;;;5137177;27;20461;-58
2024/02/14 06:55:57;;;;;;;0.60;0.40;;;7.10;99.90;;;;;;5138507;27;20443;-58
2024/02/14 06:58:25;;;;;;;0.90;0.50;;;7.00;99.90;;;;;;5137700;27;20422;-58
2024/02/14 07:00:52;;;;;;;1.50;0.40;;;7.00;99.90;;;;;;5138355;27;20524;-58
2024/02/14 07:03:19;;;;;;;1.15;0.40;;;7.10;1.00;;;;;;5137720;27;20487;-58
2024/02/14 07:05:46;;;;;;;0.88;0.40;;;7.10;99.90;;;;;;5138311;27;20415;-57
2024/02/14 07:08:14;;;;;;;0.88;0.40;;;7.10;99.90;;;;;;5137612;27;20491;-58
2024/02/14 07:10:41;;;;;;;1.58;0.40;;;7.10;99.90;;;;;;5137865;27;20793;-60
2024/02/14 07:13:08;;;;;;;1.40;0.40;;;7.20;99.90;;;;;;5136911;27;20434;-59
2024/02/14 07:15:38;;;;;;;0.70;0.40;;;7.20;99.90;;;;;;5133036;27;20431;-60
2024/02/14 07:18:05;;;;;;;0.50;0.30;;;7.30;99.90;;;;;;5142381;27;20485;-60
2024/02/14 07:20:32;;;;;;;0.55;0.30;;;7.30;99.90;;;;;;5136402;27;20692;-59
2024/02/14 07:22:59;;;;;;;0.80;0.40;;;7.40;99.90;;;;;;5131596;27;20825;-60
2024/02/14 07:25:26;;;;;;;1.10;0.40;;;7.40;99.90;;;;;;5131134;27;20474;-60
2024/02/14 07:27:53;;;;;;;1.70;0.30;;;7.50;99.90;;;;;;5126819;27;20467;-60
2024/02/14 07:30:20;;;;;;;0.80;0.40;;;7.60;99.90;;;;;;5137741;27;20771;-59
2024/02/14 07:32:48;;;;;;;0.90;0.40;;;7.60;99.90;;;;;;5124618;27;20518;-60
2024/02/14 07:35:16;;;;;;;1.30;0.40;;;7.70;99.90;;;;;;5132718;27;20845;-60
2024/02/14 07:37:43;;;;;;;1.10;0.30;;;7.80;99.90;;;;;;5137845;27;20520;-60
2024/02/14 07:40:11;;;;;;;0.70;0.30;;;7.90;99.90;;;;;;5136364;27;20436;-59
2024/02/14 07:42:38;;;;;;;0.70;0.40;;;7.90;99.90;;;;;;5133459;27;20463;-59
2024/02/14 07:45:06;;;;;;;1.80;0.30;;;8.00;99.90;;;;;;5126336;27;20774;-59
2024/02/14 07:47:33;;;;;;;1.17;0.30;;;8.20;99.90;;;;;;5139197;27;20497;-59
2024/02/14 07:50:02;;;;;;;0.60;0.30;;;8.30;99.90;;;;;;5135642;27;20511;-59
2024/02/14 07:52:29;;;;;;;0.40;0.20;;;8.40;99.90;;;;;;5130796;27;20491;-59
2024/02/14 07:54:56;;;;;;;1.20;0.30;;;8.60;99.90;;;;;;5117899;27;20529;-59
2024/02/14 07:57:24;;;;;;;0.70;0.20;;;8.80;99.90;;;;;;5127451;27;20438;-58
2024/02/14 07:59:51;;;;;;;0.88;0.30;;;9.00;99.90;;;;;;5120725;27;20771;-59
2024/02/14 08:02:18;;;;;;;0.40;0.22;;;9.20;99.90;;;;;;5126398;27;20870;-59
2024/02/14 08:04:45;;;;;;;0.50;0.30;;;9.30;99.90;;;;;;5133982;27;20430;-59
2024/02/14 08:07:14;;;;;;;1.20;0.30;;;9.30;99.90;;;;;;5118496;27;20477;-59
2024/02/14 08:09:40;;;;;;;0.70;0.20;;;9.40;99.90;;;;;;5124106;27;20438;-59
2024/02/14 08:12:07;;;;;;;0.50;0.20;;;9.50;99.90;;;;;;5130105;27;20506;-59
2024/02/14 08:14:34;;;;;;;0.60;0.30;;;9.40;99.90;;;;;;5134956;27;20838;-59
2024/02/14 08:17:01;;;;;;;0.50;0.20;;;9.40;99.90;;;;;;5135166;27;20595;-59
2024/02/14 08:19:28;;;;;;;0.40;0.20;;;9.30;99.90;;;;;;5133616;27;20473;-59
2024/02/14 08:21:57;;;;;;;0.60;0.30;;;9.30;99.90;;;;;;5127532;27;20804;-59
2024/02/14 08:24:27;;;;;;;1.17;0.30;;;9.30;99.90;;;;;;5130417;27;20434;-59
2024/02/14 08:26:54;;;;;;;0.73;0.30;;;9.30;99.90;;;;;;5123156;28;20808;-60
2024/02/14 08:29:21;;;;;;;1.15;0.30;;;9.40;99.90;;;;;;5132199;27;20437;-60
2024/02/14 08:31:48;;;;;;;0.60;0.30;;;9.30;99.90;;;;;;5135348;28;20438;-60
2024/02/14 08:34:16;;;;;;;0.70;0.30;;;9.40;99.90;;;;;;5136480;27;20462;-60
2024/02/14 08:36:43;;;;;;;0.43;0.20;;;9.50;99.90;;;;;;5128174;28;20448;-60
2024/02/14 08:39:10;;;;;;;1.00;0.30;;;9.60;99.90;;;;;;5130378;28;20488;-60
2024/02/14 08:41:40;;;;;;;0.52;0.30;;;9.80;99.90;;;;;;5130640;28;20794;-59
2024/02/14 08:44:07;;;;;;;0.40;0.22;;;10.00;99.90;;;;;;5119335;27;20431;-60
2024/02/14 08:46:34;;;;;;;0.70;0.30;;;10.10;99.90;;;;;;5141014;27;20803;-60
2024/02/14 08:49:07;;;;;;;0.95;0.30;;;10.20;99.90;;;;;;5135027;27;20972;-60
2024/02/14 08:51:36;;;;;;;1.10;0.30;;;10.30;99.90;;;;;;5137251;27;20460;-60
2024/02/14 08:54:05;;;;;;;0.60;0.30;;;10.30;99.90;;;;;;5137264;27;20518;-60
2024/02/14 08:56:33;;;;;;;1.27;0.35;;;10.20;99.90;;;;;;5139955;27;20468;-60
2024/02/14 08:59:02;;;;;;;1.13;0.30;;;10.20;99.90;;;;;;5137978;27;20430;-60
2024/02/14 09:01:29;;;;;;;1.00;0.30;;;10.30;99.90;;;;;;5132367;27;20437;-59
2024/02/14 09:03:56;;;;;;;0.90;0.30;;;10.20;99.90;;;;;;5131178;27;20541;-60
2024/02/14 09:06:23;;;;;;;0.50;0.30;;;10.30;99.90;;;;;;5128740;27;20864;-60
2024/02/14 09:08:51;;;;;;;1.40;0.30;;;10.50;99.90;;;;;;5128413;27;20763;-61
2024/02/14 09:11:18;;;;;;;0.90;0.40;;;10.60;99.90;;;;;;5137431;27;20430;-60
2024/02/14 09:13:47;;;;;;;0.52;0.30;;;10.50;99.90;;;;;;5128204;27;20485;-60
2024/02/14 09:16:16;;;;;;;0.60;0.30;;;10.40;99.90;;;;;;5128899;27;20473;-60
2024/02/14 09:18:43;;;;;;;0.50;0.30;;;10.60;99.90;;;;;;5131774;27;20428;-60
2024/02/14 09:21:10;;;;;;;0.90;0.30;;;10.80;99.90;;;;;;5136902;27;20441;-60
2024/02/14 09:23:39;;;;;;;0.80;0.30;;;10.80;99.90;;;;;;5136934;27;20458;-60
2024/02/14 09:26:06;;;;;;;1.00;0.47;;;10.80;99.90;;;;;;5126967;27;20434;-61
2024/02/14 09:28:34;;;;;;;0.60;0.40;;;10.80;99.90;;;;;;5130693;27;20805;-60
2024/02/14 09:31:04;;;;;;;1.60;0.40;;;10.90;99.90;;;;;;5135689;27;20700;-60
2024/02/14 09:33:32;;;;;;;1.35;0.40;;;10.90;99.90;;;;;;5130759;27;20512;-60
2024/02/14 09:35:59;;;;;;;0.50;0.30;;;11.00;99.90;;;;;;5118635;27;20431;-60
2024/02/14 09:38:26;;;;;;;0.80;0.40;;;11.10;99.90;;;;;;5131863;27;20442;-60
2024/02/14 09:40:55;;;;;;;0.60;0.30;;;11.20;99.90;;;;;;5132526;27;20434;-60
2024/02/14 09:43:33;;;;;;;0.70;0.30;;;11.30;99.90;;;;;;5132897;27;20450;-60
2024/02/14 09:46:01;;;;;;;0.70;0.40;;;11.40;99.90;;;;;;5126577;27;20428;-60
2024/02/14 09:48:30;;;;;;;1.60;0.55;;;11.40;99.90;;;;;;5120332;27;20458;-60
2024/02/14 09:50:59;;;;;;;1.85;0.50;;;11.30;99.90;;;;;;5133987;27;20551;-60
2024/02/14 09:53:27;;;;;;;0.90;0.40;;;11.30;99.90;;;;;;5123207;27;20496;-59
2024/02/14 09:55:55;;;;;;;1.52;0.45;;;11.40;99.90;;;;;;5136621;27;20430;-60
2024/02/14 09:58:23;;;;;;;0.70;0.32;;;11.50;99.90;;;;;;5132807;27;20503;-60
2024/02/14 10:00:50;;;;;;;0.60;0.30;;;11.40;99.90;;;;;;5124307;27;20463;-60
2024/02/14 10:03:17;;;;;;;0.77;0.30;;;11.30;99.90;;;;;;5133505;27;20466;-60
2024/02/14 10:05:44;;;;;;;0.60;0.30;;;11.30;99.90;;;;;;5133255;27;20466;-60
2024/02/14 10:08:12;;;;;;;0.50;0.30;;;11.40;99.90;;;;;;5136759;27;20843;-60
2024/02/14 10:10:39;;;;;;;0.60;0.30;;;11.40;99.90;;;;;;5136625;27;20488;-59
2024/02/14 10:13:07;;;;;;;0.90;0.30;;;11.40;99.90;;;;;;5125325;27;20440;-60
2024/02/14 10:15:33;;;;;;;0.60;0.33;;;11.40;99.90;;;;;;5131039;27;20966;-60
2024/02/14 10:18:00;;;;;;;0.70;0.30;;;11.40;99.90;;;;;;5134831;27;20639;-60
2024/02/14 10:20:29;;;;;;;0.63;0.30;;;11.40;99.90;;;;;;5130374;27;20466;-60
2024/02/14 10:23:03;;;;;;;0.57;0.30;;;11.50;99.90;;;;;;5134191;27;20826;-60
2024/02/14 10:25:32;;;;;;;0.70;0.40;;;11.50;99.90;;;;;;5132096;27;20757;-60
2024/02/14 10:28:04;;;;;;;0.70;0.33;;;11.60;99.90;;;;;;5129151;27;20416;-60
2024/02/14 10:30:32;;;;;;;0.70;0.30;;;11.60;99.90;;;;;;5121164;27;20431;-60
2024/02/14 10:33:00;;;;;;;0.70;0.30;;;11.70;99.90;;;;;;5118074;27;20832;-60
2024/02/14 10:35:31;;;;;;;0.60;0.20;;;11.70;99.90;;;;;;5127451;27;20431;-60
2024/02/14 10:38:01;;;;;;;0.60;0.30;;;11.70;99.90;;;;;;5125039;27;20521;-60
2024/02/14 10:40:29;;;;;;;0.80;0.30;;;11.70;99.90;;;;;;5130657;27;20507;-60
2024/02/14 10:42:58;;;;;;;0.52;0.30;;;12.00;99.90;;;;;;5131716;27;20426;-60
2024/02/14 10:45:26;;;;;;;0.57;0.30;;;12.10;99.90;;;;;;5128005;27;20422;-60
2024/02/14 10:47:57;;;;;;;0.50;0.20;;;12.00;99.90;;;;;;5121388;27;20512;-60
2024/02/14 10:50:25;;;;;;;0.50;0.30;;;12.10;99.90;;;;;;5128471;27;20415;-60
2024/02/14 10:52:57;;;;;;;0.70;0.30;;;12.20;99.90;;;;;;5121492;27;20725;-60
2024/02/14 10:55:30;;;;;;;1.10;0.30;;;12.30;99.90;;;;;;5131675;27;20467;-60
2024/02/14 10:58:00;;;;;;;0.50;0.20;;;12.50;99.90;;;;;;5124644;27;20763;-60
2024/02/14 11:00:28;;;;;;;0.60;0.30;;;12.70;99.90;;;;;;5133327;27;20434;-59
2024/02/14 11:02:56;;;;;;;0.60;0.20;;;12.70;99.90;;;;;;5127537;27;20466;-60
2024/02/14 11:05:23;;;;;;;0.80;0.50;;;12.90;99.90;;;;;;5131363;27;20406;-60
2024/02/14 11:07:52;;;;;;;0.70;0.20;;;13.00;99.90;;;;;;5121174;27;20436;-60
2024/02/14 11:10:21;;;;;;;1.60;0.30;;;13.00;99.90;;;;;;5119992;27;20436;-61
2024/02/14 11:12:50;;;;;;;1.10;0.30;;;13.00;99.90;;;;;;5126795;27;20430;-60
2024/02/14 11:15:21;;;;;;;0.70;0.30;;;13.20;99.90;;;;;;5127261;27;20680;-60
2024/02/14 11:17:48;;;;;;;0.60;0.30;;;13.30;99.90;;;;;;5123961;27;20491;-60
2024/02/14 11:20:19;;;;;;;0.80;0.40;;;13.20;99.90;;;;;;5121983;27;20431;-59
2024/02/14 11:22:57;;;;;;;0.80;0.30;;;13.30;99.90;;;;;;5125168;27;20462;-59
2024/02/14 11:25:30;;;;;;;0.80;0.30;;;13.30;99.90;;;;;;5129051;27;20419;-60
2024/02/14 11:27:58;;;;;;;0.60;0.30;;;13.00;99.90;;;;;;5129436;27;20430;-59
2024/02/14 11:30:30;;;;;;;0.50;0.22;;;12.90;99.90;;;;;;5128899;27;20416;-59
2024/02/14 11:33:11;;;;;;;0.40;0.20;;;12.80;99.90;;;;;;5119074;27;20446;-59
2024/02/14 11:35:41;;;;;;;0.50;0.20;;;13.00;99.90;;;;;;5124228;27;20513;-59
2024/02/14 11:38:08;;;;;;;0.60;0.30;;;13.00;99.90;;;;;;5131795;27;20467;-59
2024/02/14 11:40:35;;;;;;;0.60;0.30;;;13.20;99.90;;;;;;5129671;27;20879;-59
2024/02/14 11:43:02;;;;;;;0.52;0.20;;;13.20;99.90;;;;;;5126366;27;20769;-59
2024/02/14 11:45:30;;;;;;;0.40;0.20;;;13.20;99.90;;;;;;5125689;27;20431;-59
2024/02/14 11:47:57;;;;;;;0.40;0.20;;;13.30;99.90;;;;;;5119857;27;20434;-61
2024/02/14 11:50:24;;;;;;;1.30;0.80;;;13.40;99.90;;;;;;5131362;27;20462;-61
2024/02/14 11:52:53;;;;;;;0.60;0.30;;;13.30;99.90;;;;;;5127476;27;20478;-61
2024/02/14 11:55:29;;;;;;;0.40;0.20;;;13.20;99.90;;;;;;5129137;27;20449;-61
2024/02/14 11:57:56;;;;;;;0.50;0.20;;;13.40;99.90;;;;;;5133902;27;20434;-60
2024/02/14 12:00:23;;;;;;;0.60;0.20;;;13.40;99.90;;;;;;5130637;27;20758;-59
2024/02/14 12:02:52;;;;;;;0.90;0.20;;;13.50;99.90;;;;;;5136119;27;20446;-59
2024/02/14 12:05:20;;;;;;;0.60;0.20;;;13.50;99.90;;;;;;5136333;27;20856;-60
2024/02/14 12:07:47;;;;;;;0.40;0.20;;;13.50;99.90;;;;;;5135779;27;20422;-59
2024/02/14 12:10:14;;;;;;;0.40;0.20;;;13.60;99.90;;;;;;5135456;27;20465;-59
2024/02/14 12:12:43;;;;;;;0.50;0.20;;;13.70;99.90;;;;;;5136651;27;20454;-60
2024/02/14 12:15:11;;;;;;;0.45;0.20;;;13.90;99.90;;;;;;5150343;27;20555;-60
2024/02/14 12:17:39;;;;;;;0.40;0.20;;;13.90;99.90;;;;;;5136517;27;20530;-60
2024/02/14 12:20:11;;;;;;;0.80;0.50;;;14.20;99.90;;;;;;5128311;27;20562;-60
2024/02/14 12:22:38;;;;;;;0.80;0.30;;;14.40;99.90;;;;;;5130574;27;20521;-60
2024/02/14 12:25:11;;;;;;;0.70;0.20;;;14.40;99.90;;;;;;5135646;27;20414;-60
2024/02/14 12:27:38;;;;;;;0.40;0.20;;;14.40;99.90;;;;;;5136126;27;20791;-60
2024/02/14 12:30:06;;;;;;;0.40;0.20;;;14.30;99.90;;;;;;5135141;27;20850;-60
2024/02/14 12:32:32;;;;;;;0.70;0.20;;;14.30;99.90;;;;;;5127045;27;20431;-60
2024/02/14 12:35:00;;;;;;;0.40;0.20;;;14.30;99.90;;;;;;5121758;28;20462;-60
2024/02/14 12:37:29;;;;;;;0.40;0.20;;;14.20;99.90;;;;;;5133888;28;20438;-61
2024/02/14 12:39:56;;;;;;;0.50;0.20;;;14.10;99.90;;;;;;5134284;28;20495;-60
2024/02/14 12:42:25;;;;;;;0.40;0.20;;;14.10;99.90;;;;;;5133158;28;20434;-60
2024/02/14 12:44:53;;;;;;;0.40;0.20;;;14.10;99.90;;;;;;5129299;28;20747;-60
2024/02/14 12:47:21;;;;;;;0.40;0.20;;;14.20;99.90;;;;;;5131433;28;20429;-61
2024/02/14 12:49:49;;;;;;;1.50;0.30;;;14.30;99.90;;;;;;5135694;28;20429;-61
2024/02/14 12:52:16;;;;;;;0.50;0.20;;;14.50;99.90;;;;;;5129916;28;20849;-61
2024/02/14 12:54:45;;;;;;;0.30;0.10;;;14.60;99.90;;;;;;5130562;28;20437;-61
2024/02/14 12:57:13;;;;;;;0.45;0.13;;;14.50;99.90;;;;;;5129460;28;20462;-61
2024/02/14 12:59:39;;;;;;;0.30;0.10;;;14.50;99.90;;;;;;5131125;28;20505;-61